sensor_id;sensor_type;location;lat;lon;timestamp;P1;durP1;ratioP1;P2;durP2;ratioP2
34920;SDS011;21128;50.016;20.002;2023-07-22T00:00:04;8.43;;;6.37;;
34920;SDS011;21128;50.016;20.002;2023-07-22T00:02:33;7.60;;;5.65;;
34920;SDS011;21128;50.016;20.002;2023-07-22T00:05:00;9.50;;;6.35;;
34920;SDS011;21128;50.016;20.002;2023-07-22T00:07:27;9.13;;;6.03;;
34920;SDS011;21128;50.016;20.002;2023-07-22T00:09:54;10.73;;;6.20;;
34920;SDS011;21128;50.016;20.002;2023-07-22T00:12:21;8.43;;;5.57;;
34920;SDS011;21128;50.016;20.002;2023-07-22T00:14:52;14.47;;;6.87;;
34920;SDS011;21128;50.016;20.002;2023-07-22T00:17:19;11.20;;;6.50;;
34920;SDS011;21128;50.016;20.002;2023-07-22T00:19:47;10.87;;;6.43;;
34920;SDS011;21128;50.016;20.002;2023-07-22T00:22:14;14.63;;;7.67;;
34920;SDS011;21128;50.016;20.002;2023-07-22T00:24:42;13.97;;;7.70;;
34920;SDS011;21128;50.016;20.002;2023-07-22T00:27:09;11.37;;;7.87;;
34920;SDS011;21128;50.016;20.002;2023-07-22T00:29:35;16.55;;;8.05;;
34920;SDS011;21128;50.016;20.002;2023-07-22T00:32:04;15.77;;;7.87;;
34920;SDS011;21128;50.016;20.002;2023-07-22T00:34:35;16.15;;;8.03;;
34920;SDS011;21128;50.016;20.002;2023-07-22T00:37:03;12.55;;;8.40;;
34920;SDS011;21128;50.016;20.002;2023-07-22T00:39:30;14.18;;;8.08;;
34920;SDS011;21128;50.016;20.002;2023-07-22T00:41:57;14.70;;;8.83;;
34920;SDS011;21128;50.016;20.002;2023-07-22T00:44:24;11.17;;;8.47;;
34920;SDS011;21128;50.016;20.002;2023-07-22T00:46:53;11.70;;;8.80;;
34920;SDS011;21128;50.016;20.002;2023-07-22T00:49:23;11.50;;;8.93;;
34920;SDS011;21128;50.016;20.002;2023-07-22T00:51:52;11.50;;;8.30;;
34920;SDS011;21128;50.016;20.002;2023-07-22T00:54:19;15.40;;;8.40;;
34920;SDS011;21128;50.016;20.002;2023-07-22T00:56:46;12.13;;;8.47;;
34920;SDS011;21128;50.016;20.002;2023-07-22T00:59:14;10.07;;;8.13;;
34920;SDS011;21128;50.016;20.002;2023-07-22T01:01:43;11.80;;;8.30;;
34920;SDS011;21128;50.016;20.002;2023-07-22T01:04:09;11.00;;;8.38;;
34920;SDS011;21128;50.016;20.002;2023-07-22T01:06:37;13.53;;;7.73;;
34920;SDS011;21128;50.016;20.002;2023-07-22T01:09:05;12.33;;;9.05;;
34920;SDS011;21128;50.016;20.002;2023-07-22T01:11:33;12.75;;;8.40;;
34920;SDS011;21128;50.016;20.002;2023-07-22T01:14:00;9.45;;;7.90;;
34920;SDS011;21128;50.016;20.002;2023-07-22T01:16:27;10.20;;;7.83;;
34920;SDS011;21128;50.016;20.002;2023-07-22T01:18:55;11.03;;;7.67;;
34920;SDS011;21128;50.016;20.002;2023-07-22T01:21:23;10.77;;;8.20;;
34920;SDS011;21128;50.016;20.002;2023-07-22T01:23:51;11.10;;;7.90;;
34920;SDS011;21128;50.016;20.002;2023-07-22T01:26:19;11.87;;;7.13;;
34920;SDS011;21128;50.016;20.002;2023-07-22T01:28:46;12.23;;;7.53;;
34920;SDS011;21128;50.016;20.002;2023-07-22T01:31:13;11.90;;;7.37;;
34920;SDS011;21128;50.016;20.002;2023-07-22T01:33:40;12.95;;;7.80;;
34920;SDS011;21128;50.016;20.002;2023-07-22T01:36:07;9.83;;;7.40;;
34920;SDS011;21128;50.016;20.002;2023-07-22T01:38:34;10.90;;;6.90;;
34920;SDS011;21128;50.016;20.002;2023-07-22T01:41:02;12.63;;;7.33;;
34920;SDS011;21128;50.016;20.002;2023-07-22T01:43:29;8.60;;;6.87;;
34920;SDS011;21128;50.016;20.002;2023-07-22T01:45:56;11.80;;;7.23;;
34920;SDS011;21128;50.016;20.002;2023-07-22T01:48:23;10.30;;;6.97;;
34920;SDS011;21128;50.016;20.002;2023-07-22T01:50:50;12.23;;;7.43;;
34920;SDS011;21128;50.016;20.002;2023-07-22T01:53:17;10.30;;;6.57;;
34920;SDS011;21128;50.016;20.002;2023-07-22T01:55:44;10.07;;;6.90;;
34920;SDS011;21128;50.016;20.002;2023-07-22T01:58:11;9.63;;;5.97;;
34920;SDS011;21128;50.016;20.002;2023-07-22T02:00:38;9.93;;;6.33;;
34920;SDS011;21128;50.016;20.002;2023-07-22T02:03:05;10.40;;;6.90;;
34920;SDS011;21128;50.016;20.002;2023-07-22T02:05:32;14.90;;;6.27;;
34920;SDS011;21128;50.016;20.002;2023-07-22T02:07:59;9.00;;;6.40;;
34920;SDS011;21128;50.016;20.002;2023-07-22T02:10:26;8.75;;;6.30;;
34920;SDS011;21128;50.016;20.002;2023-07-22T02:12:53;10.67;;;6.50;;
34920;SDS011;21128;50.016;20.002;2023-07-22T02:15:20;9.40;;;7.15;;
34920;SDS011;21128;50.016;20.002;2023-07-22T02:17:48;8.43;;;6.67;;
34920;SDS011;21128;50.016;20.002;2023-07-22T02:20:15;8.37;;;5.83;;
34920;SDS011;21128;50.016;20.002;2023-07-22T02:22:43;10.10;;;5.50;;
34920;SDS011;21128;50.016;20.002;2023-07-22T02:25:10;9.77;;;5.47;;
34920;SDS011;21128;50.016;20.002;2023-07-22T02:27:37;5.62;;;4.80;;
34920;SDS011;21128;50.016;20.002;2023-07-22T02:30:07;7.70;;;4.93;;
34920;SDS011;21128;50.016;20.002;2023-07-22T02:32:38;6.80;;;4.20;;
34920;SDS011;21128;50.016;20.002;2023-07-22T02:35:07;8.33;;;4.90;;
34920;SDS011;21128;50.016;20.002;2023-07-22T02:37:36;8.20;;;4.87;;
34920;SDS011;21128;50.016;20.002;2023-07-22T02:40:05;10.93;;;4.70;;
34920;SDS011;21128;50.016;20.002;2023-07-22T02:42:35;5.57;;;4.03;;
34920;SDS011;21128;50.016;20.002;2023-07-22T02:45:02;7.22;;;4.75;;
34920;SDS011;21128;50.016;20.002;2023-07-22T02:47:36;7.90;;;4.40;;
34920;SDS011;21128;50.016;20.002;2023-07-22T02:50:03;7.30;;;4.13;;
34920;SDS011;21128;50.016;20.002;2023-07-22T02:52:32;6.73;;;4.10;;
34920;SDS011;21128;50.016;20.002;2023-07-22T02:55:10;6.25;;;4.15;;
34920;SDS011;21128;50.016;20.002;2023-07-22T02:57:39;7.27;;;4.00;;
34920;SDS011;21128;50.016;20.002;2023-07-22T03:00:07;8.63;;;4.03;;
34920;SDS011;21128;50.016;20.002;2023-07-22T03:02:35;5.90;;;4.63;;
34920;SDS011;21128;50.016;20.002;2023-07-22T03:05:03;7.37;;;4.23;;
34920;SDS011;21128;50.016;20.002;2023-07-22T03:07:34;6.17;;;4.20;;
34920;SDS011;21128;50.016;20.002;2023-07-22T03:10:01;5.97;;;4.23;;
34920;SDS011;21128;50.016;20.002;2023-07-22T03:12:29;9.27;;;4.00;;
34920;SDS011;21128;50.016;20.002;2023-07-22T03:14:56;6.33;;;3.30;;
34920;SDS011;21128;50.016;20.002;2023-07-22T03:17:22;5.53;;;3.97;;
34920;SDS011;21128;50.016;20.002;2023-07-22T03:19:50;4.83;;;3.40;;
34920;SDS011;21128;50.016;20.002;2023-07-22T03:22:17;6.73;;;3.33;;
34920;SDS011;21128;50.016;20.002;2023-07-22T03:24:47;9.90;;;3.67;;
34920;SDS011;21128;50.016;20.002;2023-07-22T03:27:15;4.60;;;3.55;;
34920;SDS011;21128;50.016;20.002;2023-07-22T03:29:43;9.00;;;3.60;;
34920;SDS011;21128;50.016;20.002;2023-07-22T03:32:10;6.25;;;3.75;;
34920;SDS011;21128;50.016;20.002;2023-07-22T03:34:37;6.67;;;3.83;;
34920;SDS011;21128;50.016;20.002;2023-07-22T03:37:04;5.10;;;3.90;;
34920;SDS011;21128;50.016;20.002;2023-07-22T03:39:31;5.33;;;3.12;;
34920;SDS011;21128;50.016;20.002;2023-07-22T03:41:58;4.80;;;3.13;;
34920;SDS011;21128;50.016;20.002;2023-07-22T03:44:25;5.05;;;3.17;;
34920;SDS011;21128;50.016;20.002;2023-07-22T03:46:52;5.77;;;3.53;;
34920;SDS011;21128;50.016;20.002;2023-07-22T03:49:20;4.27;;;3.20;;
34920;SDS011;21128;50.016;20.002;2023-07-22T03:51:47;5.60;;;3.35;;
34920;SDS011;21128;50.016;20.002;2023-07-22T03:54:14;6.13;;;3.17;;
34920;SDS011;21128;50.016;20.002;2023-07-22T03:56:41;5.13;;;2.97;;
34920;SDS011;21128;50.016;20.002;2023-07-22T03:59:08;3.50;;;2.80;;
34920;SDS011;21128;50.016;20.002;2023-07-22T04:01:35;6.62;;;3.40;;
34920;SDS011;21128;50.016;20.002;2023-07-22T04:04:02;5.30;;;3.55;;
34920;SDS011;21128;50.016;20.002;2023-07-22T04:06:29;4.37;;;3.27;;
34920;SDS011;21128;50.016;20.002;2023-07-22T04:08:56;5.00;;;2.97;;
34920;SDS011;21128;50.016;20.002;2023-07-22T04:11:23;4.22;;;3.35;;
34920;SDS011;21128;50.016;20.002;2023-07-22T04:13:50;4.93;;;3.30;;
34920;SDS011;21128;50.016;20.002;2023-07-22T04:16:17;4.33;;;3.20;;
34920;SDS011;21128;50.016;20.002;2023-07-22T04:18:44;5.07;;;2.97;;
34920;SDS011;21128;50.016;20.002;2023-07-22T04:21:11;4.57;;;3.27;;
34920;SDS011;21128;50.016;20.002;2023-07-22T04:23:38;6.17;;;3.30;;
34920;SDS011;21128;50.016;20.002;2023-07-22T04:26:05;5.07;;;3.60;;
34920;SDS011;21128;50.016;20.002;2023-07-22T04:28:34;6.87;;;3.60;;
34920;SDS011;21128;50.016;20.002;2023-07-22T04:31:01;5.20;;;3.53;;
34920;SDS011;21128;50.016;20.002;2023-07-22T04:33:30;6.10;;;3.50;;
34920;SDS011;21128;50.016;20.002;2023-07-22T04:35:58;5.15;;;3.80;;
34920;SDS011;21128;50.016;20.002;2023-07-22T04:38:27;7.23;;;4.20;;
34920;SDS011;21128;50.016;20.002;2023-07-22T04:40:54;9.73;;;4.13;;
34920;SDS011;21128;50.016;20.002;2023-07-22T04:43:21;6.13;;;3.93;;
34920;SDS011;21128;50.016;20.002;2023-07-22T04:45:48;7.60;;;5.17;;
34920;SDS011;21128;50.016;20.002;2023-07-22T04:48:17;10.93;;;5.30;;
34920;SDS011;21128;50.016;20.002;2023-07-22T04:50:46;10.20;;;6.00;;
34920;SDS011;21128;50.016;20.002;2023-07-22T04:53:15;11.80;;;5.67;;
34920;SDS011;21128;50.016;20.002;2023-07-22T04:55:45;10.10;;;6.47;;
34920;SDS011;21128;50.016;20.002;2023-07-22T04:58:12;9.57;;;6.97;;
34920;SDS011;21128;50.016;20.002;2023-07-22T05:00:39;11.57;;;6.90;;
34920;SDS011;21128;50.016;20.002;2023-07-22T05:03:08;11.60;;;7.50;;
34920;SDS011;21128;50.016;20.002;2023-07-22T05:05:35;13.80;;;7.33;;
34920;SDS011;21128;50.016;20.002;2023-07-22T05:08:03;13.23;;;7.10;;
34920;SDS011;21128;50.016;20.002;2023-07-22T05:10:30;8.93;;;7.55;;
34920;SDS011;21128;50.016;20.002;2023-07-22T05:12:57;11.37;;;8.90;;
34920;SDS011;21128;50.016;20.002;2023-07-22T05:15:24;10.43;;;7.93;;
34920;SDS011;21128;50.016;20.002;2023-07-22T05:17:51;13.03;;;7.87;;
34920;SDS011;21128;50.016;20.002;2023-07-22T05:20:18;12.50;;;8.67;;
34920;SDS011;21128;50.016;20.002;2023-07-22T05:22:45;17.77;;;8.67;;
34920;SDS011;21128;50.016;20.002;2023-07-22T05:25:12;13.68;;;9.35;;
34920;SDS011;21128;50.016;20.002;2023-07-22T05:27:40;12.37;;;7.77;;
34920;SDS011;21128;50.016;20.002;2023-07-22T05:30:07;17.13;;;8.17;;
34920;SDS011;21128;50.016;20.002;2023-07-22T05:32:35;10.40;;;8.57;;
34920;SDS011;21128;50.016;20.002;2023-07-22T05:35:02;12.17;;;8.10;;
34920;SDS011;21128;50.016;20.002;2023-07-22T05:37:32;13.90;;;8.57;;
34920;SDS011;21128;50.016;20.002;2023-07-22T05:39:59;13.07;;;9.10;;
34920;SDS011;21128;50.016;20.002;2023-07-22T05:42:28;13.93;;;9.57;;
34920;SDS011;21128;50.016;20.002;2023-07-22T05:44:57;14.67;;;9.50;;
34920;SDS011;21128;50.016;20.002;2023-07-22T05:47:24;13.37;;;9.83;;
34920;SDS011;21128;50.016;20.002;2023-07-22T05:49:52;13.80;;;9.70;;
34920;SDS011;21128;50.016;20.002;2023-07-22T05:52:19;12.50;;;8.63;;
34920;SDS011;21128;50.016;20.002;2023-07-22T05:54:46;13.53;;;8.83;;
34920;SDS011;21128;50.016;20.002;2023-07-22T05:57:13;13.87;;;9.33;;
34920;SDS011;21128;50.016;20.002;2023-07-22T05:59:40;10.17;;;8.60;;
34920;SDS011;21128;50.016;20.002;2023-07-22T06:02:08;16.00;;;10.13;;
34920;SDS011;21128;50.016;20.002;2023-07-22T06:04:36;11.70;;;9.40;;
34920;SDS011;21128;50.016;20.002;2023-07-22T06:07:05;12.57;;;9.57;;
34920;SDS011;21128;50.016;20.002;2023-07-22T06:09:32;15.33;;;9.93;;
34920;SDS011;21128;50.016;20.002;2023-07-22T06:11:59;14.60;;;9.05;;
34920;SDS011;21128;50.016;20.002;2023-07-22T06:14:26;12.27;;;9.47;;
34920;SDS011;21128;50.016;20.002;2023-07-22T06:16:53;11.13;;;9.40;;
34920;SDS011;21128;50.016;20.002;2023-07-22T06:19:20;11.12;;;8.85;;
34920;SDS011;21128;50.016;20.002;2023-07-22T06:21:47;13.13;;;9.53;;
34920;SDS011;21128;50.016;20.002;2023-07-22T06:24:14;15.53;;;9.80;;
34920;SDS011;21128;50.016;20.002;2023-07-22T06:26:41;13.40;;;9.03;;
34920;SDS011;21128;50.016;20.002;2023-07-22T06:29:08;19.52;;;8.80;;
34920;SDS011;21128;50.016;20.002;2023-07-22T06:31:35;15.53;;;9.50;;
34920;SDS011;21128;50.016;20.002;2023-07-22T06:34:02;19.20;;;8.93;;
34920;SDS011;21128;50.016;20.002;2023-07-22T06:36:29;14.30;;;9.20;;
34920;SDS011;21128;50.016;20.002;2023-07-22T06:38:56;11.20;;;9.30;;
34920;SDS011;21128;50.016;20.002;2023-07-22T06:41:23;12.33;;;9.40;;
34920;SDS011;21128;50.016;20.002;2023-07-22T06:43:51;11.50;;;9.03;;
34920;SDS011;21128;50.016;20.002;2023-07-22T06:46:18;15.97;;;10.07;;
34920;SDS011;21128;50.016;20.002;2023-07-22T06:48:45;14.00;;;8.28;;
34920;SDS011;21128;50.016;20.002;2023-07-22T06:51:13;11.63;;;8.63;;
34920;SDS011;21128;50.016;20.002;2023-07-22T06:53:40;11.83;;;9.13;;
34920;SDS011;21128;50.016;20.002;2023-07-22T06:56:07;14.43;;;9.17;;
34920;SDS011;21128;50.016;20.002;2023-07-22T06:58:34;13.77;;;9.57;;
34920;SDS011;21128;50.016;20.002;2023-07-22T07:01:01;16.63;;;9.57;;
34920;SDS011;21128;50.016;20.002;2023-07-22T07:03:28;14.68;;;9.78;;
34920;SDS011;21128;50.016;20.002;2023-07-22T07:05:55;14.57;;;10.10;;
34920;SDS011;21128;50.016;20.002;2023-07-22T07:08:23;10.27;;;9.13;;
34920;SDS011;21128;50.016;20.002;2023-07-22T07:10:51;12.33;;;9.10;;
34920;SDS011;21128;50.016;20.002;2023-07-22T07:13:18;12.83;;;8.70;;
34920;SDS011;21128;50.016;20.002;2023-07-22T07:15:46;15.10;;;9.03;;
34920;SDS011;21128;50.016;20.002;2023-07-22T07:18:17;16.23;;;9.20;;
34920;SDS011;21128;50.016;20.002;2023-07-22T07:20:44;21.00;;;9.70;;
34920;SDS011;21128;50.016;20.002;2023-07-22T07:23:12;14.50;;;9.48;;
34920;SDS011;21128;50.016;20.002;2023-07-22T07:25:40;17.93;;;9.57;;
34920;SDS011;21128;50.016;20.002;2023-07-22T07:28:07;12.03;;;8.05;;
34920;SDS011;21128;50.016;20.002;2023-07-22T07:30:34;12.80;;;7.87;;
34920;SDS011;21128;50.016;20.002;2023-07-22T07:33:01;10.75;;;7.58;;
34920;SDS011;21128;50.016;20.002;2023-07-22T07:35:28;13.20;;;7.67;;
34920;SDS011;21128;50.016;20.002;2023-07-22T07:37:55;13.27;;;8.13;;
34920;SDS011;21128;50.016;20.002;2023-07-22T07:40:22;12.07;;;7.53;;
34920;SDS011;21128;50.016;20.002;2023-07-22T07:42:49;13.85;;;6.53;;
34920;SDS011;21128;50.016;20.002;2023-07-22T07:45:16;7.37;;;6.23;;
34920;SDS011;21128;50.016;20.002;2023-07-22T07:47:43;6.50;;;5.30;;
34920;SDS011;21128;50.016;20.002;2023-07-22T07:50:10;9.90;;;5.13;;
34920;SDS011;21128;50.016;20.002;2023-07-22T07:52:37;10.40;;;4.37;;
34920;SDS011;21128;50.016;20.002;2023-07-22T07:55:05;7.57;;;5.30;;
34920;SDS011;21128;50.016;20.002;2023-07-22T07:57:33;6.20;;;5.17;;
34920;SDS011;21128;50.016;20.002;2023-07-22T07:59:59;12.05;;;5.20;;
34920;SDS011;21128;50.016;20.002;2023-07-22T08:02:27;8.23;;;5.23;;
34920;SDS011;21128;50.016;20.002;2023-07-22T08:04:54;5.53;;;4.10;;
34920;SDS011;21128;50.016;20.002;2023-07-22T08:07:21;8.93;;;3.80;;
34920;SDS011;21128;50.016;20.002;2023-07-22T08:09:48;9.10;;;3.90;;
34920;SDS011;21128;50.016;20.002;2023-07-22T08:12:16;5.40;;;3.90;;
34920;SDS011;21128;50.016;20.002;2023-07-22T08:14:43;8.97;;;4.10;;
34920;SDS011;21128;50.016;20.002;2023-07-22T08:17:10;8.50;;;3.60;;
34920;SDS011;21128;50.016;20.002;2023-07-22T08:19:37;3.67;;;3.30;;
34920;SDS011;21128;50.016;20.002;2023-07-22T08:22:04;7.90;;;3.23;;
34920;SDS011;21128;50.016;20.002;2023-07-22T08:24:31;6.70;;;2.50;;
34920;SDS011;21128;50.016;20.002;2023-07-22T08:26:59;4.63;;;3.57;;
34920;SDS011;21128;50.016;20.002;2023-07-22T08:29:26;4.80;;;3.02;;
34920;SDS011;21128;50.016;20.002;2023-07-22T08:31:53;6.43;;;2.83;;
34920;SDS011;21128;50.016;20.002;2023-07-22T08:34:20;6.33;;;3.40;;
34920;SDS011;21128;50.016;20.002;2023-07-22T08:36:47;4.80;;;3.20;;
34920;SDS011;21128;50.016;20.002;2023-07-22T08:39:13;4.33;;;2.87;;
34920;SDS011;21128;50.016;20.002;2023-07-22T08:41:40;6.70;;;3.10;;
34920;SDS011;21128;50.016;20.002;2023-07-22T08:44:19;4.13;;;3.00;;
34920;SDS011;21128;50.016;20.002;2023-07-22T08:46:49;4.90;;;2.67;;
34920;SDS011;21128;50.016;20.002;2023-07-22T08:49:21;6.55;;;2.65;;
34920;SDS011;21128;50.016;20.002;2023-07-22T08:51:49;8.73;;;3.20;;
34920;SDS011;21128;50.016;20.002;2023-07-22T08:54:17;4.63;;;2.97;;
34920;SDS011;21128;50.016;20.002;2023-07-22T08:56:44;5.22;;;3.37;;
34920;SDS011;21128;50.016;20.002;2023-07-22T08:59:11;5.23;;;3.37;;
34920;SDS011;21128;50.016;20.002;2023-07-22T09:01:41;6.37;;;3.93;;
34920;SDS011;21128;50.016;20.002;2023-07-22T09:04:08;7.55;;;3.65;;
34920;SDS011;21128;50.016;20.002;2023-07-22T09:06:35;4.45;;;3.22;;
34920;SDS011;21128;50.016;20.002;2023-07-22T09:09:03;7.40;;;3.70;;
34920;SDS011;21128;50.016;20.002;2023-07-22T09:11:35;5.80;;;3.13;;
34920;SDS011;21128;50.016;20.002;2023-07-22T09:14:02;6.83;;;3.30;;
34920;SDS011;21128;50.016;20.002;2023-07-22T09:16:33;5.50;;;2.97;;
34920;SDS011;21128;50.016;20.002;2023-07-22T09:19:03;3.37;;;3.03;;
34920;SDS011;21128;50.016;20.002;2023-07-22T09:21:32;7.03;;;3.00;;
34920;SDS011;21128;50.016;20.002;2023-07-22T09:24:02;4.43;;;2.90;;
34920;SDS011;21128;50.016;20.002;2023-07-22T09:26:47;4.37;;;2.50;;
34920;SDS011;21128;50.016;20.002;2023-07-22T09:29:14;10.98;;;2.95;;
34920;SDS011;21128;50.016;20.002;2023-07-22T09:31:50;3.50;;;2.80;;
34920;SDS011;21128;50.016;20.002;2023-07-22T09:34:19;8.43;;;3.13;;
34920;SDS011;21128;50.016;20.002;2023-07-22T09:36:53;5.37;;;2.33;;
34920;SDS011;21128;50.016;20.002;2023-07-22T09:39:21;4.03;;;2.57;;
34920;SDS011;21128;50.016;20.002;2023-07-22T09:41:49;8.47;;;2.80;;
34920;SDS011;21128;50.016;20.002;2023-07-22T09:44:19;6.40;;;2.40;;
34920;SDS011;21128;50.016;20.002;2023-07-22T09:46:46;5.85;;;2.90;;
34920;SDS011;21128;50.016;20.002;2023-07-22T09:49:17;2.67;;;2.00;;
34920;SDS011;21128;50.016;20.002;2023-07-22T09:51:44;3.07;;;2.10;;
34920;SDS011;21128;50.016;20.002;2023-07-22T09:54:11;6.78;;;2.20;;
34920;SDS011;21128;50.016;20.002;2023-07-22T09:56:45;3.40;;;1.55;;
34920;SDS011;21128;50.016;20.002;2023-07-22T09:59:14;4.17;;;1.70;;
34920;SDS011;21128;50.016;20.002;2023-07-22T10:01:49;3.60;;;2.00;;
34920;SDS011;21128;50.016;20.002;2023-07-22T10:04:18;4.43;;;1.80;;
34920;SDS011;21128;50.016;20.002;2023-07-22T10:06:48;3.23;;;1.77;;
34920;SDS011;21128;50.016;20.002;2023-07-22T10:09:15;3.37;;;1.80;;
34920;SDS011;21128;50.016;20.002;2023-07-22T10:11:43;6.30;;;1.70;;
34920;SDS011;21128;50.016;20.002;2023-07-22T10:14:10;5.00;;;1.70;;
34920;SDS011;21128;50.016;20.002;2023-07-22T10:16:40;5.80;;;2.10;;
34920;SDS011;21128;50.016;20.002;2023-07-22T10:19:07;3.30;;;1.60;;
34920;SDS011;21128;50.016;20.002;2023-07-22T10:21:36;2.87;;;1.77;;
34920;SDS011;21128;50.016;20.002;2023-07-22T10:24:05;4.77;;;1.70;;
34920;SDS011;21128;50.016;20.002;2023-07-22T10:26:33;5.73;;;2.07;;
34920;SDS011;21128;50.016;20.002;2023-07-22T10:29:01;4.20;;;1.33;;
34920;SDS011;21128;50.016;20.002;2023-07-22T10:31:31;6.83;;;1.60;;
34920;SDS011;21128;50.016;20.002;2023-07-22T10:33:59;1.90;;;1.50;;
34920;SDS011;21128;50.016;20.002;2023-07-22T10:36:30;2.67;;;1.50;;
34920;SDS011;21128;50.016;20.002;2023-07-22T10:38:57;3.87;;;1.80;;
34920;SDS011;21128;50.016;20.002;2023-07-22T10:41:26;3.07;;;1.70;;
34920;SDS011;21128;50.016;20.002;2023-07-22T10:43:53;2.42;;;1.52;;
34920;SDS011;21128;50.016;20.002;2023-07-22T10:46:35;2.57;;;1.60;;
34920;SDS011;21128;50.016;20.002;2023-07-22T10:49:07;4.43;;;1.40;;
34920;SDS011;21128;50.016;20.002;2023-07-22T10:51:39;3.10;;;1.40;;
34920;SDS011;21128;50.016;20.002;2023-07-22T10:54:11;5.13;;;1.67;;
34920;SDS011;21128;50.016;20.002;2023-07-22T10:56:45;5.03;;;1.60;;
34920;SDS011;21128;50.016;20.002;2023-07-22T10:59:12;3.23;;;1.40;;
34920;SDS011;21128;50.016;20.002;2023-07-22T11:01:40;4.00;;;1.73;;
34920;SDS011;21128;50.016;20.002;2023-07-22T11:04:12;2.03;;;1.67;;
34920;SDS011;21128;50.016;20.002;2023-07-22T11:07:04;3.40;;;1.35;;
34920;SDS011;21128;50.016;20.002;2023-07-22T11:09:35;4.17;;;1.87;;
34920;SDS011;21128;50.016;20.002;2023-07-22T11:12:08;3.90;;;1.30;;
34920;SDS011;21128;50.016;20.002;2023-07-22T11:14:39;5.73;;;1.70;;
34920;SDS011;21128;50.016;20.002;2023-07-22T11:17:11;3.30;;;1.67;;
34920;SDS011;21128;50.016;20.002;2023-07-22T11:19:39;4.37;;;1.37;;
34920;SDS011;21128;50.016;20.002;2023-07-22T11:22:06;3.40;;;1.17;;
34920;SDS011;21128;50.016;20.002;2023-07-22T11:24:33;3.90;;;1.70;;
34920;SDS011;21128;50.016;20.002;2023-07-22T11:27:05;2.43;;;1.70;;
34920;SDS011;21128;50.016;20.002;2023-07-22T11:29:35;3.53;;;1.33;;
34920;SDS011;21128;50.016;20.002;2023-07-22T11:32:02;6.43;;;1.37;;
34920;SDS011;21128;50.016;20.002;2023-07-22T11:34:30;3.43;;;1.30;;
34920;SDS011;21128;50.016;20.002;2023-07-22T11:36:57;4.35;;;1.27;;
34920;SDS011;21128;50.016;20.002;2023-07-22T11:39:25;1.75;;;1.27;;
34920;SDS011;21128;50.016;20.002;2023-07-22T11:41:53;5.93;;;1.50;;
34920;SDS011;21128;50.016;20.002;2023-07-22T11:44:22;4.40;;;1.17;;
34920;SDS011;21128;50.016;20.002;2023-07-22T11:47:03;2.15;;;1.50;;
34920;SDS011;21128;50.016;20.002;2023-07-22T11:49:40;6.27;;;1.87;;
34920;SDS011;21128;50.016;20.002;2023-07-22T11:52:17;3.70;;;1.60;;
34920;SDS011;21128;50.016;20.002;2023-07-22T11:54:44;3.47;;;1.60;;
34920;SDS011;21128;50.016;20.002;2023-07-22T11:57:13;3.30;;;1.30;;
34920;SDS011;21128;50.016;20.002;2023-07-22T11:59:47;3.90;;;1.30;;
34920;SDS011;21128;50.016;20.002;2023-07-22T12:02:16;4.40;;;1.80;;
34920;SDS011;21128;50.016;20.002;2023-07-22T12:04:53;4.27;;;1.97;;
34920;SDS011;21128;50.016;20.002;2023-07-22T12:07:28;3.03;;;1.67;;
34920;SDS011;21128;50.016;20.002;2023-07-22T12:09:57;2.15;;;1.40;;
34920;SDS011;21128;50.016;20.002;2023-07-22T12:12:39;2.45;;;1.50;;
34920;SDS011;21128;50.016;20.002;2023-07-22T12:15:17;6.63;;;1.83;;
34920;SDS011;21128;50.016;20.002;2023-07-22T12:17:52;2.80;;;1.40;;
34920;SDS011;21128;50.016;20.002;2023-07-22T12:20:25;2.67;;;1.63;;
34920;SDS011;21128;50.016;20.002;2023-07-22T12:22:56;2.33;;;1.37;;
34920;SDS011;21128;50.016;20.002;2023-07-22T12:25:24;4.13;;;1.57;;
34920;SDS011;21128;50.016;20.002;2023-07-22T12:27:51;2.50;;;1.47;;
34920;SDS011;21128;50.016;20.002;2023-07-22T12:30:18;2.58;;;1.50;;
34920;SDS011;21128;50.016;20.002;2023-07-22T12:32:46;2.73;;;1.77;;
34920;SDS011;21128;50.016;20.002;2023-07-22T12:35:14;7.63;;;1.60;;
34920;SDS011;21128;50.016;20.002;2023-07-22T12:37:41;4.93;;;1.63;;
34920;SDS011;21128;50.016;20.002;2023-07-22T12:40:08;5.37;;;1.83;;
34920;SDS011;21128;50.016;20.002;2023-07-22T12:42:38;4.50;;;1.60;;
34920;SDS011;21128;50.016;20.002;2023-07-22T12:45:05;2.13;;;1.43;;
34920;SDS011;21128;50.016;20.002;2023-07-22T12:47:34;3.83;;;1.67;;
34920;SDS011;21128;50.016;20.002;2023-07-22T12:50:01;2.23;;;1.53;;
34920;SDS011;21128;50.016;20.002;2023-07-22T12:52:28;3.57;;;1.87;;
34920;SDS011;21128;50.016;20.002;2023-07-22T12:54:55;3.30;;;1.70;;
34920;SDS011;21128;50.016;20.002;2023-07-22T12:57:22;2.83;;;1.77;;
34920;SDS011;21128;50.016;20.002;2023-07-22T12:59:49;3.60;;;1.60;;
34920;SDS011;21128;50.016;20.002;2023-07-22T13:02:16;2.40;;;1.60;;
34920;SDS011;21128;50.016;20.002;2023-07-22T13:04:43;9.70;;;1.80;;
34920;SDS011;21128;50.016;20.002;2023-07-22T13:07:10;6.20;;;1.50;;
34920;SDS011;21128;50.016;20.002;2023-07-22T13:09:37;3.65;;;1.62;;
34920;SDS011;21128;50.016;20.002;2023-07-22T13:12:04;6.00;;;1.67;;
34920;SDS011;21128;50.016;20.002;2023-07-22T13:14:32;5.30;;;1.77;;
34920;SDS011;21128;50.016;20.002;2023-07-22T13:16:58;5.33;;;1.70;;
34920;SDS011;21128;50.016;20.002;2023-07-22T13:19:25;2.50;;;1.50;;
34920;SDS011;21128;50.016;20.002;2023-07-22T13:21:52;2.03;;;1.40;;
34920;SDS011;21128;50.016;20.002;2023-07-22T13:24:21;2.70;;;1.70;;
34920;SDS011;21128;50.016;20.002;2023-07-22T13:26:49;4.33;;;1.57;;
34920;SDS011;21128;50.016;20.002;2023-07-22T13:29:15;4.05;;;2.25;;
34920;SDS011;21128;50.016;20.002;2023-07-22T13:31:43;5.15;;;1.77;;
34920;SDS011;21128;50.016;20.002;2023-07-22T13:34:10;2.70;;;1.43;;
34920;SDS011;21128;50.016;20.002;2023-07-22T13:36:37;1.97;;;1.50;;
34920;SDS011;21128;50.016;20.002;2023-07-22T13:39:04;3.57;;;1.60;;
34920;SDS011;21128;50.016;20.002;2023-07-22T13:41:31;3.08;;;1.45;;
34920;SDS011;21128;50.016;20.002;2023-07-22T13:43:58;1.63;;;1.50;;
34920;SDS011;21128;50.016;20.002;2023-07-22T13:46:25;5.03;;;1.42;;
34920;SDS011;21128;50.016;20.002;2023-07-22T13:48:52;2.20;;;1.60;;
34920;SDS011;21128;50.016;20.002;2023-07-22T13:51:19;2.53;;;1.53;;
34920;SDS011;21128;50.016;20.002;2023-07-22T13:53:46;3.00;;;1.70;;
34920;SDS011;21128;50.016;20.002;2023-07-22T13:56:14;4.10;;;1.77;;
34920;SDS011;21128;50.016;20.002;2023-07-22T13:58:40;2.57;;;1.47;;
34920;SDS011;21128;50.016;20.002;2023-07-22T14:01:07;2.97;;;1.43;;
34920;SDS011;21128;50.016;20.002;2023-07-22T14:03:35;6.00;;;1.50;;
34920;SDS011;21128;50.016;20.002;2023-07-22T14:06:02;2.43;;;1.57;;
34920;SDS011;21128;50.016;20.002;2023-07-22T14:08:30;4.30;;;1.70;;
34920;SDS011;21128;50.016;20.002;2023-07-22T14:10:56;3.07;;;1.90;;
34920;SDS011;21128;50.016;20.002;2023-07-22T14:13:24;3.90;;;2.00;;
34920;SDS011;21128;50.016;20.002;2023-07-22T14:15:51;4.67;;;1.70;;
34920;SDS011;21128;50.016;20.002;2023-07-22T14:18:19;5.60;;;1.90;;
34920;SDS011;21128;50.016;20.002;2023-07-22T14:20:46;3.20;;;1.60;;
34920;SDS011;21128;50.016;20.002;2023-07-22T14:23:13;3.73;;;1.60;;
34920;SDS011;21128;50.016;20.002;2023-07-22T14:25:41;4.37;;;1.67;;
34920;SDS011;21128;50.016;20.002;2023-07-22T14:28:08;6.97;;;1.70;;
34920;SDS011;21128;50.016;20.002;2023-07-22T14:30:35;11.73;;;1.60;;
34920;SDS011;21128;50.016;20.002;2023-07-22T14:33:02;3.13;;;1.80;;
34920;SDS011;21128;50.016;20.002;2023-07-22T14:35:29;4.43;;;1.60;;